createdAt,value
2023-03-20T00:01:21.701Z,90.58
2023-03-20T00:03:48.742Z,91.01
2023-03-20T00:06:21.498Z,91.27
2023-03-20T00:08:50.047Z,91.15
2023-03-20T00:11:33.475Z,91.49
2023-03-20T00:14:06.149Z,90.51
2023-03-20T00:16:35.683Z,89.33
2023-03-20T00:19:03.341Z,88.67
2023-03-20T00:21:31.585Z,88.96
2023-03-20T00:23:58.844Z,89.02
2023-03-20T00:26:28.381Z,88.56
2023-03-20T00:28:55.094Z,88.91
2023-03-20T00:31:29.207Z,88.75
2023-03-20T00:33:58.654Z,88.46
2023-03-20T00:36:25.508Z,88.50
2023-03-20T00:38:52.437Z,88.89
2023-03-20T00:41:26.142Z,89.03
2023-03-20T00:43:59.636Z,88.71
2023-03-20T00:46:27.148Z,87.88
2023-03-20T00:48:54.619Z,87.54
2023-03-20T00:51:21.315Z,88.02
2023-03-20T00:53:49.200Z,89.24
2023-03-20T00:56:32.379Z,88.91
2023-03-20T00:59:02.048Z,89.48
2023-03-20T01:01:29.498Z,89.73
2023-03-20T01:03:56.389Z,89.53
2023-03-20T01:06:22.997Z,88.96
2023-03-20T01:08:49.573Z,89.83
2023-03-20T01:11:21.905Z,91.34
2023-03-20T01:13:48.791Z,92.03
2023-03-20T01:16:25.659Z,93.10
2023-03-20T01:18:52.698Z,92.54
2023-03-20T01:21:20.821Z,91.71
2023-03-20T01:23:49.318Z,91.12
2023-03-20T01:26:28.870Z,90.60
2023-03-20T01:28:55.436Z,90.18
2023-03-20T01:31:22.027Z,90.12
2023-03-20T01:33:48.620Z,89.16
2023-03-20T01:36:17.811Z,89.30
2023-03-20T01:38:44.764Z,90.00
2023-03-20T01:41:13.680Z,90.17
2023-03-20T01:43:40.874Z,90.67
2023-03-20T01:46:30.735Z,90.46
2023-03-20T01:49:29.576Z,90.99
2023-03-20T01:51:57.326Z,91.82
2023-03-20T01:54:35.924Z,91.98
2023-03-20T01:57:11.327Z,90.73
2023-03-20T02:00:11.857Z,90.99
2023-03-20T02:02:40.408Z,91.03
2023-03-20T02:05:10.775Z,90.07
2023-03-20T02:07:39.314Z,89.91
2023-03-20T02:10:10.915Z,90.44
2023-03-20T02:12:38.740Z,92.09
2023-03-20T02:15:07.325Z,91.88
2023-03-20T02:17:34.179Z,92.05
2023-03-20T02:20:28.841Z,92.25
2023-03-20T02:22:55.376Z,92.65
2023-03-20T02:26:03.621Z,92.94
2023-03-20T02:28:51.045Z,92.55
2023-03-20T02:31:50.364Z,93.02
2023-03-20T02:34:35.830Z,92.92
2023-03-20T02:37:39.555Z,94.43
2023-03-20T02:40:30.505Z,93.31
2023-03-20T02:43:07.587Z,93.45
2023-03-20T02:45:49.045Z,92.90
2023-03-20T02:48:37.076Z,93.05
2023-03-20T02:51:06.373Z,93.29
2023-03-20T02:54:17.551Z,92.18
2023-03-20T02:56:49.231Z,91.32
2023-03-20T02:59:31.050Z,91.78
2023-03-20T03:02:25.227Z,92.17
2023-03-20T03:04:57.066Z,92.45
2023-03-20T03:07:28.896Z,93.05
2023-03-20T03:10:00.413Z,94.52
2023-03-20T03:12:31.864Z,94.30
2023-03-20T03:15:06.281Z,95.37
2023-03-20T03:17:35.634Z,94.40
2023-03-20T03:20:08.409Z,95.01
2023-03-20T03:22:36.591Z,96.43
2023-03-20T03:25:03.276Z,97.29
2023-03-20T03:27:37.423Z,96.62
2023-03-20T03:30:16.428Z,96.88
2023-03-20T03:33:17.671Z,95.61
2023-03-20T03:35:46.438Z,94.92
2023-03-20T03:38:35.253Z,93.29
2023-03-20T03:41:07.221Z,93.59
2023-03-20T03:43:47.395Z,92.92
2023-03-20T03:46:25.412Z,94.29
2023-03-20T03:48:57.096Z,94.74
2023-03-20T03:51:28.344Z,95.16
2023-03-20T03:54:04.347Z,95.63
2023-03-20T03:56:35.024Z,95.28
2023-03-20T03:59:08.799Z,97.01
2023-03-20T04:01:36.716Z,97.75
2023-03-20T04:04:10.561Z,97.95
2023-03-20T04:06:37.342Z,98.41
2023-03-20T04:09:04.042Z,98.00
2023-03-20T04:11:31.005Z,97.61
2023-03-20T04:13:57.704Z,95.97
2023-03-20T04:16:25.268Z,93.21
2023-03-20T04:18:52.196Z,90.50
2023-03-20T04:21:19.295Z,90.67
2023-03-20T04:23:46.211Z,93.15
2023-03-20T04:26:13.166Z,95.00
2023-03-20T04:28:39.725Z,93.92
2023-03-20T04:31:06.866Z,93.01
2023-03-20T04:33:33.619Z,94.03
2023-03-20T04:36:00.598Z,93.99
2023-03-20T04:38:27.409Z,93.20
2023-03-20T04:40:54.165Z,92.98
2023-03-20T04:43:20.808Z,93.56
2023-03-20T04:45:47.634Z,94.78
2023-03-20T04:48:14.546Z,95.78
2023-03-20T04:50:41.323Z,95.44
2023-03-20T04:53:07.979Z,95.85
2023-03-20T04:55:34.866Z,94.28
2023-03-20T04:58:01.657Z,94.03
2023-03-20T05:00:28.314Z,93.70
2023-03-20T05:02:54.988Z,92.59
2023-03-20T05:05:22.491Z,92.29
2023-03-20T05:07:49.783Z,90.14
2023-03-20T05:10:16.587Z,88.91
2023-03-20T05:12:43.379Z,89.40
2023-03-20T05:15:10.876Z,89.35
2023-03-20T05:17:37.453Z,92.18
2023-03-20T05:20:05.240Z,91.29
2023-03-20T05:22:31.877Z,90.54
2023-03-20T05:24:58.463Z,89.33
2023-03-20T05:27:25.021Z,89.09
2023-03-20T05:29:51.656Z,91.06
2023-03-20T05:32:18.227Z,90.18
2023-03-20T05:34:44.880Z,89.26
2023-03-20T05:37:11.922Z,88.26
2023-03-20T05:39:38.484Z,88.01
2023-03-20T05:42:05.211Z,88.23
2023-03-20T05:44:32.178Z,87.67
2023-03-20T05:46:58.765Z,87.48
2023-03-20T05:49:25.323Z,86.61
2023-03-20T05:51:51.927Z,85.96
2023-03-20T05:54:18.637Z,85.11
2023-03-20T05:56:45.494Z,85.59
2023-03-20T05:59:12.347Z,83.46
2023-03-20T06:01:38.957Z,82.17
2023-03-20T06:04:05.870Z,81.97
2023-03-20T06:06:32.600Z,80.11
2023-03-20T06:08:59.148Z,79.52
2023-03-20T06:11:25.829Z,79.04
2023-03-20T06:13:54.634Z,78.56
2023-03-20T06:16:21.753Z,77.97
2023-03-20T06:18:49.289Z,77.75
2023-03-20T06:21:16.240Z,77.88
2023-03-20T06:23:42.876Z,77.76
2023-03-20T06:26:09.750Z,77.04
2023-03-20T06:28:37.261Z,76.21
2023-03-20T06:31:03.918Z,75.86
2023-03-20T06:33:30.514Z,74.94
2023-03-20T06:35:57.796Z,74.73
2023-03-20T06:38:24.455Z,74.20
2023-03-20T06:40:51.137Z,72.22
2023-03-20T06:43:20.710Z,71.03
2023-03-20T06:45:48.472Z,70.76
2023-03-20T06:48:16.275Z,71.25
2023-03-20T06:50:43.013Z,72.20
2023-03-20T06:53:09.644Z,73.99
2023-03-20T06:55:37.112Z,74.08
2023-03-20T06:58:03.786Z,73.31
2023-03-20T07:00:30.491Z,72.55
2023-03-20T07:02:57.138Z,71.48
2023-03-20T07:05:23.998Z,71.41
2023-03-20T07:07:50.704Z,71.68
2023-03-20T07:10:17.438Z,70.50
2023-03-20T07:12:44.693Z,70.09
2023-03-20T07:15:11.545Z,69.71
2023-03-20T07:17:38.392Z,67.66
2023-03-20T07:20:05.681Z,66.11
2023-03-20T07:22:32.224Z,65.34
2023-03-20T07:24:58.794Z,66.28
2023-03-20T07:27:26.340Z,65.51
2023-03-20T07:29:53.198Z,64.27
2023-03-20T07:32:20.790Z,63.60
2023-03-20T07:34:47.673Z,61.84
2023-03-20T07:37:14.394Z,62.37
2023-03-20T07:39:41.181Z,61.38
2023-03-20T07:42:07.800Z,60.69
2023-03-20T07:44:34.628Z,59.53
2023-03-20T07:47:01.539Z,58.76
2023-03-20T07:49:28.100Z,57.55
2023-03-20T07:51:54.935Z,55.42
2023-03-20T07:54:21.577Z,55.43
2023-03-20T07:56:48.308Z,55.62
2023-03-20T07:59:15.193Z,54.18
2023-03-20T08:01:42.064Z,53.19
2023-03-20T08:04:08.965Z,52.79
2023-03-20T08:06:36.643Z,53.30
2023-03-20T08:09:03.722Z,52.45
2023-03-20T08:11:32.562Z,52.20
2023-03-20T08:14:00.488Z,52.14
2023-03-20T08:16:27.167Z,52.22
2023-03-20T08:18:56.190Z,52.50
2023-03-20T08:21:23.122Z,51.96
2023-03-20T08:23:49.683Z,54.54
2023-03-20T08:26:16.624Z,53.94
2023-03-20T08:28:47.908Z,53.42
2023-03-20T08:31:15.389Z,52.80
2023-03-20T08:33:42.048Z,51.92
2023-03-20T08:36:08.936Z,52.27
2023-03-20T08:38:35.943Z,51.79
2023-03-20T08:41:02.779Z,51.75
2023-03-20T08:43:29.968Z,50.63
2023-03-20T08:45:56.716Z,49.64
2023-03-20T08:48:23.692Z,49.26
2023-03-20T08:50:50.496Z,48.66
2023-03-20T08:53:17.094Z,49.11
2023-03-20T08:55:53.693Z,48.74
2023-03-20T08:58:21.492Z,48.45
2023-03-20T09:00:48.163Z,48.07
2023-03-20T09:03:16.574Z,47.99
2023-03-20T09:05:51.337Z,47.86
2023-03-20T09:08:18.384Z,47.83
2023-03-20T09:10:46.687Z,47.83
2023-03-20T09:13:26.247Z,47.26
2023-03-20T09:15:54.336Z,46.70
2023-03-20T09:18:21.221Z,47.14
2023-03-20T09:20:49.198Z,45.92
2023-03-20T09:23:16.569Z,45.97
2023-03-20T09:25:43.251Z,45.10
2023-03-20T09:28:10.248Z,45.10
2023-03-20T09:30:37.512Z,45.80
2023-03-20T09:33:04.516Z,44.39
2023-03-20T09:35:31.417Z,43.93
2023-03-20T09:37:58.134Z,43.92
2023-03-20T09:40:29.790Z,43.53
2023-03-20T09:43:30.038Z,43.57
2023-03-20T09:46:04.681Z,42.98
2023-03-20T09:49:00.318Z,43.97
2023-03-20T09:51:50.216Z,43.23
2023-03-20T09:54:25.883Z,42.81
2023-03-20T09:56:54.888Z,41.79
2023-03-20T09:59:22.782Z,41.97
2023-03-20T10:01:53.884Z,41.54
2023-03-20T10:04:21.051Z,40.98
2023-03-20T10:06:47.823Z,40.59
2023-03-20T10:09:25.956Z,41.23
2023-03-20T10:12:08.368Z,41.91
2023-03-20T10:14:58.474Z,41.02
2023-03-20T10:17:34.886Z,41.84
2023-03-20T10:20:27.879Z,41.16
2023-03-20T10:22:59.544Z,42.40
2023-03-20T10:25:40.069Z,42.45
2023-03-20T10:28:28.254Z,40.87
2023-03-20T10:31:19.382Z,40.22
2023-03-20T10:34:17.771Z,40.32
2023-03-20T10:36:59.503Z,40.06
2023-03-20T10:39:37.987Z,40.90
2023-03-20T10:42:20.926Z,39.37
2023-03-20T10:44:56.237Z,38.56
2023-03-20T10:47:24.633Z,37.93
2023-03-20T10:50:00.410Z,39.45
2023-03-20T10:52:32.378Z,38.18
2023-03-20T10:55:14.556Z,37.37
2023-03-20T10:57:48.391Z,38.95
2023-03-20T11:00:23.575Z,38.06
2023-03-20T11:02:50.919Z,37.50
2023-03-20T11:05:30.066Z,39.11
2023-03-20T11:08:11.772Z,38.19
2023-03-20T11:10:40.065Z,37.76
2023-03-20T11:13:25.174Z,35.71
2023-03-20T11:15:53.752Z,36.62
2023-03-20T11:18:20.713Z,36.36
2023-03-20T11:20:56.505Z,35.69
2023-03-20T11:23:33.251Z,36.29
2023-03-20T11:26:01.000Z,35.36
2023-03-20T11:28:35.106Z,35.18
2023-03-20T11:31:13.850Z,34.18
2023-03-20T11:33:46.699Z,34.52
2023-03-20T11:36:24.336Z,33.62
2023-03-20T11:38:53.004Z,34.08
2023-03-20T11:41:24.744Z,33.46
2023-03-20T11:43:51.689Z,33.63
2023-03-20T11:46:21.466Z,33.53
2023-03-20T11:48:48.102Z,32.99
2023-03-20T11:51:20.346Z,32.43
2023-03-20T11:53:48.104Z,31.93
2023-03-20T11:56:20.769Z,32.11
2023-03-20T11:59:14.724Z,32.48
2023-03-20T12:01:48.771Z,32.25
2023-03-20T12:04:20.639Z,32.49
2023-03-20T12:06:54.148Z,32.04
2023-03-20T12:09:42.689Z,31.86
2023-03-20T12:12:13.992Z,33.05
2023-03-20T12:14:45.841Z,32.25
2023-03-20T12:17:31.252Z,32.09
2023-03-20T12:20:03.998Z,31.90
2023-03-20T12:22:38.597Z,31.58
2023-03-20T12:25:50.784Z,32.39
2023-03-20T12:28:55.214Z,31.79
2023-03-20T12:31:45.720Z,31.71
2023-03-20T12:34:28.227Z,31.27
2023-03-20T12:36:58.492Z,31.27
2023-03-20T12:39:29.822Z,31.07
2023-03-20T12:42:11.974Z,30.64
2023-03-20T12:44:54.056Z,30.52
2023-03-20T12:47:52.022Z,30.98
2023-03-20T12:50:33.595Z,31.54
2023-03-20T12:53:34.317Z,30.86
2023-03-20T12:56:25.240Z,30.31
2023-03-20T12:59:01.764Z,30.75
2023-03-20T13:01:36.722Z,30.76
2023-03-20T13:04:34.499Z,31.71
2023-03-20T13:07:03.197Z,31.37
2023-03-20T13:09:48.029Z,31.26
2023-03-20T13:12:30.005Z,31.24
2023-03-20T13:15:22.100Z,30.12
2023-03-20T13:17:57.883Z,29.98
2023-03-20T13:20:42.779Z,29.58
2023-03-20T13:23:36.182Z,30.33
2023-03-20T13:26:24.492Z,29.81
2023-03-20T13:29:15.654Z,29.58
2023-03-20T13:34:05.372Z,31.06
2023-03-20T13:37:51.180Z,31.26
2023-03-20T13:40:25.984Z,31.59
2023-03-20T13:42:55.342Z,31.25
2023-03-20T13:46:49.969Z,31.53
2023-03-20T13:49:27.002Z,31.49
2023-03-20T13:53:35.342Z,31.59
2023-03-20T13:56:25.197Z,31.43
2023-03-20T13:58:51.791Z,31.19
2023-03-20T14:01:33.359Z,30.23
2023-03-20T14:04:02.435Z,29.80
2023-03-20T14:06:32.152Z,29.51
2023-03-20T14:08:59.972Z,29.88
2023-03-20T14:11:35.356Z,28.98
2023-03-20T14:14:27.499Z,29.01
2023-03-20T14:17:30.859Z,27.61
2023-03-20T14:20:09.289Z,27.08
2023-03-20T14:22:40.932Z,27.35
2023-03-20T14:25:18.892Z,27.92
2023-03-20T14:27:57.735Z,28.79
2023-03-20T14:30:30.377Z,28.25
2023-03-20T14:33:07.514Z,28.54
2023-03-20T14:35:42.597Z,28.33
2023-03-20T14:38:26.297Z,28.93
2023-03-20T14:41:11.292Z,28.99
2023-03-20T14:43:59.665Z,29.17
2023-03-20T14:46:39.577Z,29.17
2023-03-20T14:49:26.167Z,29.56
2023-03-20T14:52:00.336Z,30.47
2023-03-20T14:54:31.416Z,30.75
2023-03-20T14:57:19.927Z,30.98
2023-03-20T14:59:49.995Z,31.50
2023-03-20T15:02:35.371Z,31.97
2023-03-20T15:05:02.380Z,32.26
2023-03-20T15:07:31.501Z,32.42
2023-03-20T15:10:02.866Z,32.75
2023-03-20T15:12:37.324Z,33.04
2023-03-20T15:15:22.803Z,34.40
2023-03-20T15:17:49.445Z,35.55
2023-03-20T15:20:22.133Z,36.40
2023-03-20T15:22:55.206Z,36.58
2023-03-20T15:25:28.722Z,37.25
2023-03-20T15:27:55.630Z,37.78
2023-03-20T15:30:23.503Z,38.52
2023-03-20T15:32:54.148Z,39.22
2023-03-20T15:35:23.568Z,39.77
2023-03-20T15:37:53.458Z,40.63
2023-03-20T15:40:43.758Z,41.21
2023-03-20T15:43:19.335Z,41.79
2023-03-20T15:45:46.053Z,41.76
2023-03-20T15:48:21.013Z,41.86
2023-03-20T15:50:57.591Z,42.48
2023-03-20T15:53:30.908Z,43.10
2023-03-20T15:56:18.244Z,43.30
2023-03-20T15:58:49.002Z,43.94
2023-03-20T16:01:21.520Z,44.23
2023-03-20T16:03:49.704Z,44.06
2023-03-20T16:06:20.826Z,44.29
2023-03-20T16:09:06.598Z,44.89
2023-03-20T16:11:39.610Z,45.38
2023-03-20T16:14:10.917Z,45.30
2023-03-20T16:16:37.896Z,45.13
2023-03-20T16:19:07.854Z,46.09
2023-03-20T16:21:39.512Z,46.23
2023-03-20T16:24:15.755Z,46.82
2023-03-20T16:26:45.647Z,47.33
2023-03-20T16:29:15.484Z,47.64
2023-03-20T16:31:49.968Z,47.84
2023-03-20T16:34:23.991Z,48.24
2023-03-20T16:36:57.353Z,48.50
2023-03-20T16:39:28.153Z,49.27
2023-03-20T16:42:24.821Z,49.88
2023-03-20T16:44:58.572Z,49.55
2023-03-20T16:47:35.121Z,49.79
2023-03-20T16:50:17.653Z,49.94
2023-03-20T16:52:58.496Z,49.80
2023-03-20T16:55:29.691Z,49.74
2023-03-20T16:58:03.602Z,50.13
2023-03-20T17:00:52.034Z,50.26
2023-03-20T17:03:26.387Z,50.37
2023-03-20T17:05:57.900Z,51.32
2023-03-20T17:08:37.600Z,51.05
2023-03-20T17:11:17.638Z,51.65
2023-03-20T17:13:44.294Z,51.90
2023-03-20T17:16:16.195Z,52.08
2023-03-20T17:18:45.376Z,52.37
2023-03-20T17:21:12.509Z,52.46
2023-03-20T17:23:39.924Z,52.74
2023-03-20T17:26:12.706Z,53.04
2023-03-20T17:28:39.549Z,53.45
2023-03-20T17:31:06.575Z,53.63
2023-03-20T17:33:33.801Z,53.62
2023-03-20T17:36:00.999Z,54.30
2023-03-20T17:38:27.651Z,55.25
2023-03-20T17:40:54.308Z,55.84
2023-03-20T17:43:21.062Z,55.89
2023-03-20T17:45:48.247Z,56.40
2023-03-20T17:48:18.298Z,57.00
2023-03-20T17:50:46.641Z,57.18
2023-03-20T17:53:23.973Z,58.55
2023-03-20T17:55:52.533Z,58.93
2023-03-20T17:58:22.656Z,57.84
2023-03-20T18:00:51.528Z,58.43
2023-03-20T18:03:18.846Z,58.22
2023-03-20T18:05:48.056Z,58.29
2023-03-20T18:08:21.333Z,59.03
2023-03-20T18:10:53.655Z,59.23
2023-03-20T18:13:21.699Z,59.08
2023-03-20T18:15:49.879Z,58.70
2023-03-20T18:18:17.309Z,58.16
2023-03-20T18:20:45.774Z,58.35
2023-03-20T18:23:12.917Z,57.73
2023-03-20T18:25:40.243Z,58.31
2023-03-20T18:28:13.361Z,57.90
2023-03-20T18:30:41.474Z,57.73
2023-03-20T18:33:08.712Z,57.72
2023-03-20T18:35:37.248Z,58.40
2023-03-20T18:38:04.554Z,59.21
2023-03-20T18:40:38.245Z,59.54
2023-03-20T18:43:05.482Z,59.73
2023-03-20T18:45:32.787Z,60.48
2023-03-20T18:47:59.457Z,60.08
2023-03-20T18:50:32.141Z,61.17
2023-03-20T18:52:59.910Z,61.24
2023-03-20T18:55:29.196Z,61.84
2023-03-20T18:57:56.380Z,62.30
2023-03-20T19:00:40.161Z,62.33
2023-03-20T19:03:09.123Z,62.97
2023-03-20T19:05:36.057Z,63.28
2023-03-20T19:08:03.519Z,64.42
2023-03-20T19:10:36.514Z,64.13
2023-03-20T19:13:05.749Z,64.01
2023-03-20T19:15:38.684Z,64.50
2023-03-20T19:18:08.386Z,64.79
2023-03-20T19:20:43.655Z,65.10
2023-03-20T19:23:15.999Z,65.66
2023-03-20T19:25:46.198Z,65.98
2023-03-20T19:28:34.507Z,66.28
2023-03-20T19:31:05.211Z,66.75
2023-03-20T19:33:33.402Z,66.69
2023-03-20T19:36:11.819Z,66.60
2023-03-20T19:38:38.461Z,66.80
2023-03-20T19:41:05.619Z,66.93
2023-03-20T19:43:32.444Z,66.91
2023-03-20T19:45:59.549Z,66.23
2023-03-20T19:51:22.104Z,66.52
2023-03-20T19:53:50.348Z,66.41
2023-03-20T19:56:19.309Z,66.15
2023-03-20T19:58:46.235Z,65.89
2023-03-20T20:01:18.592Z,66.04
2023-03-20T20:03:46.205Z,66.25
2023-03-20T20:06:12.821Z,66.48
2023-03-20T20:08:47.915Z,66.44
2023-03-20T20:11:16.783Z,66.93
2023-03-20T20:14:04.187Z,66.57
2023-03-20T20:16:30.806Z,67.17
2023-03-20T20:18:57.589Z,67.84
2023-03-20T20:22:17.165Z,68.51
2023-03-20T20:24:10.936Z,68.43
2023-03-20T20:26:44.910Z,67.98
2023-03-20T20:29:14.517Z,67.46
2023-03-20T20:31:41.614Z,67.97
2023-03-20T20:35:14.310Z,67.98
2023-03-20T20:39:41.982Z,68.68
2023-03-20T20:42:08.731Z,68.37
2023-03-20T20:44:35.381Z,68.03
2023-03-20T20:47:02.092Z,68.43
2023-03-20T20:49:28.880Z,68.54
2023-03-20T20:51:55.823Z,68.93
2023-03-20T20:54:22.436Z,68.69
2023-03-20T20:56:49.069Z,69.16
2023-03-20T20:59:15.881Z,69.18
2023-03-20T21:01:42.650Z,69.28
2023-03-20T21:04:09.509Z,69.40
2023-03-20T21:07:05.802Z,69.46
2023-03-20T21:09:24.388Z,69.24
2023-03-20T21:11:50.988Z,69.18
2023-03-20T21:14:17.568Z,69.81
2023-03-20T21:16:44.136Z,70.84
2023-03-20T21:19:10.758Z,71.13
2023-03-20T21:21:39.233Z,71.38
2023-03-20T21:24:06.973Z,71.89
2023-03-20T21:26:33.547Z,71.65
2023-03-20T21:29:00.139Z,71.35
2023-03-20T21:31:30.901Z,72.12
2023-03-20T21:33:58.078Z,72.17
2023-03-20T21:36:24.834Z,72.67
2023-03-20T21:39:07.812Z,72.29
2023-03-20T21:41:37.762Z,72.04
2023-03-20T21:44:05.522Z,72.18
2023-03-20T22:03:33.750Z,72.93
2023-03-20T22:15:23.327Z,74.13
2023-03-20T22:23:35.197Z,74.10
2023-03-20T22:26:11.278Z,72.89
2023-03-20T22:29:09.490Z,72.74
2023-03-20T22:31:48.235Z,73.18
2023-03-20T22:42:49.399Z,73.87
2023-03-20T22:45:09.796Z,74.23
2023-03-20T22:47:36.834Z,74.39
2023-03-20T22:50:03.672Z,75.27
2023-03-20T22:52:49.394Z,76.64
2023-03-20T22:55:17.751Z,76.22
2023-03-20T22:57:56.169Z,75.95
2023-03-20T23:00:30.664Z,75.64
2023-03-20T23:03:06.713Z,75.68
2023-03-20T23:05:41.341Z,75.60
2023-03-20T23:08:08.968Z,75.57
2023-03-20T23:10:38.004Z,75.64
2023-03-20T23:13:04.919Z,76.25
2023-03-20T23:15:31.840Z,77.22
2023-03-20T23:17:58.950Z,75.91
2023-03-20T23:20:25.661Z,77.48
2023-03-20T23:22:52.201Z,76.83
2023-03-20T23:25:31.091Z,76.68
2023-03-20T23:28:06.167Z,77.13
2023-03-20T23:30:41.967Z,77.07
2023-03-20T23:33:10.902Z,77.63
2023-03-20T23:35:37.649Z,77.43
2023-03-20T23:38:04.242Z,78.01
2023-03-20T23:40:31.139Z,77.71
2023-03-20T23:42:57.820Z,77.78
2023-03-20T23:45:24.463Z,77.22
2023-03-20T23:47:51.258Z,76.78
2023-03-20T23:50:30.096Z,77.04
2023-03-20T23:53:13.046Z,76.54
2023-03-20T23:55:46.207Z,75.88
2023-03-20T23:58:13.182Z,76.24
